Archival Weather

Salzburg

Salzburg, Austria (LOWS)

Report from: Thursday, September 21, 2023 3:20 AM CEST
Current time: Friday, July 19, 2024 4:54 AM CEST

Current weather – Weather history – Daily summaries
Weather forecast

Temperature15.0°C (59.0°F)
Dew point12.0°C (53.6°F)
Winds 8 kts (4.1 m/s, 9.2 mph) South-Southeast (160°)
Visibility6.2 mi. (10 km)
Clouds Scattered clouds 10,000 ft. (3,048 m)
Altimeter29.80 in.Hg (1009 mB)
Relative humidity82 %
Density altitude340 ft. (104 m)
Remarks Fully automated report
Flight conditions Visual Meteorological Conditions
Raw dataLOWS 210120Z AUTO 16008KT 9999 SCT100 15/12 Q1009
An error has occurred. This application may no longer respond until reloaded. Reload 🗙